Time;durP1;ratioP1;P1;durP2;ratioP2;P2;SDS_P1;SDS_P2;PMS_P1;PMS_P2;Temp;Humidity;BMP_temperature;BMP_pressure;BME280_temperature;BME280_humidity;BME280_pressure;Samples;Min_cycle;Max_cycle;Signal;HPM_P1;HPM_P2
2023/10/22 00:02:25;;;;;;;5.47;3.22;;;;;;;;;;10398311;28;20469;-87
2023/10/22 00:07:28;;;;;;;4.22;3.08;;;;;;;;;;10395690;28;20421;-87
2023/10/22 00:12:30;;;;;;;3.83;2.63;;;;;;;;;;10400537;28;20403;-87
2023/10/22 00:17:34;;;;;;;3.57;2.33;;;;;;;;;;10395257;28;20451;-87
2023/10/22 00:22:36;;;;;;;3.60;2.80;;;;;;;;;;10392615;28;20450;-87
2023/10/22 00:27:39;;;;;;;3.30;3.00;;;;;;;;;;10394789;28;20399;-87
2023/10/22 00:32:42;;;;;;;4.95;2.63;;;;;;;;;;10385652;28;20407;-87
2023/10/22 00:37:45;;;;;;;2.70;2.40;;;;;;;;;;10394238;28;20426;-87
2023/10/22 00:42:47;;;;;;;6.45;3.13;;;;;;;;;;10388533;28;20779;-87
2023/10/22 00:47:51;;;;;;;3.17;2.37;;;;;;;;;;10390127;28;20442;-87
2023/10/22 00:52:53;;;;;;;3.22;2.53;;;;;;;;;;10404034;28;20907;-87
2023/10/22 00:57:57;;;;;;;3.93;2.60;;;;;;;;;;10389350;28;20421;-86
2023/10/22 01:03:01;;;;;;;4.60;3.13;;;;;;;;;;10396973;28;20407;-87
2023/10/22 01:08:05;;;;;;;4.63;2.57;;;;;;;;;;10397230;28;20405;-87
2023/10/22 01:13:07;;;;;;;2.97;2.37;;;;;;;;;;10399644;28;20480;-86
2023/10/22 01:18:11;;;;;;;3.97;2.75;;;;;;;;;;10394278;28;20427;-87
2023/10/22 01:23:15;;;;;;;4.43;2.80;;;;;;;;;;10401964;28;20411;-87
2023/10/22 01:28:17;;;;;;;3.78;2.85;;;;;;;;;;10409108;28;20410;-87
2023/10/22 01:33:20;;;;;;;3.40;2.90;;;;;;;;;;10401162;28;20415;-87
2023/10/22 01:38:24;;;;;;;2.80;2.60;;;;;;;;;;10403541;28;20886;-87
2023/10/22 01:43:26;;;;;;;5.27;2.77;;;;;;;;;;10401529;28;20953;-86
2023/10/22 01:48:28;;;;;;;5.10;2.63;;;;;;;;;;10392300;28;20417;-87
2023/10/22 01:53:33;;;;;;;3.75;2.55;;;;;;;;;;10398073;28;20452;-87
2023/10/22 01:58:35;;;;;;;3.33;2.65;;;;;;;;;;10397083;28;20458;-86
2023/10/22 02:03:37;;;;;;;3.78;2.60;;;;;;;;;;10404289;28;20415;-87
2023/10/22 02:08:42;;;;;;;6.37;2.90;;;;;;;;;;10400460;28;20417;-88
2023/10/22 02:13:44;;;;;;;3.72;2.70;;;;;;;;;;10399610;28;20447;-87
2023/10/22 02:18:46;;;;;;;4.38;3.20;;;;;;;;;;10404979;28;20480;-87
2023/10/22 02:23:52;;;;;;;3.92;2.78;;;;;;;;;;10398654;28;20423;-87
2023/10/22 02:28:55;;;;;;;4.47;2.70;;;;;;;;;;10389650;28;20447;-87
2023/10/22 02:34:06;;;;;;;3.92;2.78;;;;;;;;;;10394263;28;20409;-87
2023/10/22 02:39:11;;;;;;;4.60;2.97;;;;;;;;;;10394068;28;20425;-87
2023/10/22 02:44:14;;;;;;;4.03;2.50;;;;;;;;;;10400414;28;20411;-87
2023/10/22 02:49:16;;;;;;;4.55;3.13;;;;;;;;;;10409738;28;20760;-87
2023/10/22 02:54:20;;;;;;;7.35;3.00;;;;;;;;;;10411920;28;20464;-88
2023/10/22 02:59:22;;;;;;;3.17;2.53;;;;;;;;;;10401596;28;20428;-87
2023/10/22 03:04:25;;;;;;;4.20;2.35;;;;;;;;;;10388662;28;20444;-88
2023/10/22 03:09:28;;;;;;;3.10;2.22;;;;;;;;;;10390910;28;20471;-88
2023/10/22 03:14:31;;;;;;;3.90;2.42;;;;;;;;;;10401551;28;20417;-88
2023/10/22 03:19:33;;;;;;;5.30;2.97;;;;;;;;;;10387932;28;20899;-87
2023/10/22 03:24:37;;;;;;;4.28;2.70;;;;;;;;;;10393937;28;20464;-87
2023/10/22 03:29:39;;;;;;;5.03;2.50;;;;;;;;;;10397855;28;20886;-87
2023/10/22 03:34:41;;;;;;;3.72;2.40;;;;;;;;;;10403813;28;20423;-87
2023/10/22 03:39:45;;;;;;;3.93;2.70;;;;;;;;;;10402157;28;20460;-87
2023/10/22 03:44:48;;;;;;;3.95;3.03;;;;;;;;;;10402984;28;20436;-87
2023/10/22 03:49:50;;;;;;;6.07;3.00;;;;;;;;;;10392878;28;20469;-87
2023/10/22 03:54:54;;;;;;;4.30;2.80;;;;;;;;;;10408677;28;20456;-87
2023/10/22 03:59:56;;;;;;;3.78;2.75;;;;;;;;;;10391977;28;20497;-87
2023/10/22 04:04:59;;;;;;;5.45;2.92;;;;;;;;;;10397815;28;20466;-87
2023/10/22 04:10:09;;;;;;;2.80;2.50;;;;;;;;;;10390638;28;20446;-87
2023/10/22 04:15:13;;;;;;;2.73;2.53;;;;;;;;;;10394280;28;20404;-86
2023/10/22 04:20:15;;;;;;;4.10;2.78;;;;;;;;;;10389912;28;20499;-87
2023/10/22 04:25:19;;;;;;;11.50;5.57;;;;;;;;;;10397232;28;20868;-87
2023/10/22 04:30:22;;;;;;;3.22;2.67;;;;;;;;;;10394659;28;20415;-88
2023/10/22 04:35:24;;;;;;;4.97;2.80;;;;;;;;;;10396511;28;20409;-87
2023/10/22 04:40:32;;;;;;;4.03;2.75;;;;;;;;;;10405046;28;20417;-87
2023/10/22 04:45:34;;;;;;;4.78;2.90;;;;;;;;;;10408227;28;20906;-88
2023/10/22 04:50:38;;;;;;;4.00;2.50;;;;;;;;;;10400995;28;20411;-87
2023/10/22 04:55:42;;;;;;;2.90;2.40;;;;;;;;;;10409180;28;20919;-86
2023/10/22 05:00:47;;;;;;;4.65;2.55;;;;;;;;;;10410562;28;20409;-87
2023/10/22 05:05:49;;;;;;;3.97;2.70;;;;;;;;;;10401703;28;20415;-87
2023/10/22 05:10:54;;;;;;;3.58;2.78;;;;;;;;;;10416009;28;20413;-87
2023/10/22 05:15:56;;;;;;;5.43;3.23;;;;;;;;;;10411051;28;20425;-88
2023/10/22 05:21:01;;;;;;;6.10;3.30;;;;;;;;;;10401943;28;20491;-87
2023/10/22 05:26:07;;;;;;;4.55;3.22;;;;;;;;;;10417379;28;20411;-86
2023/10/22 05:31:15;;;;;;;4.68;3.40;;;;;;;;;;10412519;28;20409;-88
2023/10/22 05:36:19;;;;;;;3.60;3.15;;;;;;;;;;10402697;28;20430;-87
2023/10/22 05:41:23;;;;;;;5.18;3.85;;;;;;;;;;10399561;28;20415;-87
2023/10/22 05:46:26;;;;;;;5.88;3.53;;;;;;;;;;10402358;28;20443;-86
2023/10/22 05:51:28;;;;;;;4.57;3.40;;;;;;;;;;10403090;28;20407;-87
2023/10/22 05:56:32;;;;;;;5.15;3.67;;;;;;;;;;10403139;28;20512;-87
2023/10/22 06:01:38;;;;;;;4.85;3.42;;;;;;;;;;10409340;28;20411;-87
2023/10/22 06:06:40;;;;;;;6.35;4.40;;;;;;;;;;10399195;28;20911;-87
2023/10/22 06:11:44;;;;;;;6.70;4.50;;;;;;;;;;10396446;28;20543;-86
2023/10/22 06:16:46;;;;;;;8.00;4.80;;;;;;;;;;10405671;28;21010;-88
2023/10/22 06:21:49;;;;;;;7.38;4.47;;;;;;;;;;10390187;28;20888;-87
2023/10/22 06:26:52;;;;;;;6.95;4.30;;;;;;;;;;10386686;28;20411;-87
2023/10/22 06:31:55;;;;;;;7.25;4.75;;;;;;;;;;10403260;28;20485;-87
2023/10/22 06:36:57;;;;;;;7.18;4.45;;;;;;;;;;10395901;28;20784;-87
2023/10/22 06:42:01;;;;;;;6.85;4.57;;;;;;;;;;10399041;28;20411;-87
2023/10/22 06:47:04;;;;;;;7.80;4.47;;;;;;;;;;10402012;28;20423;-87
2023/10/22 06:52:06;;;;;;;7.28;4.18;;;;;;;;;;10394536;28;20413;-88
2023/10/22 06:57:10;;;;;;;5.40;4.07;;;;;;;;;;10398978;28;20451;-88
2023/10/22 07:02:13;;;;;;;4.77;3.53;;;;;;;;;;10475475;22;20406;-88
2023/10/22 07:07:16;;;;;;;6.72;3.38;;;;;;;;;;10566383;27;20485;-88
2023/10/22 07:12:21;;;;;;;4.68;3.35;;;;;;;;;;10570842;27;20398;-88
2023/10/22 07:17:23;;;;;;;3.80;3.17;;;;;;;;;;10591662;27;20422;-87
2023/10/22 07:22:25;;;;;;;5.43;3.47;;;;;;;;;;10581103;27;20448;-88
2023/10/22 07:27:31;;;;;;;4.25;3.00;;;;;;;;;;10586617;27;20400;-88
2023/10/22 07:32:33;;;;;;;4.32;3.00;;;;;;;;;;10590201;27;20402;-87
2023/10/22 07:37:37;;;;;;;3.75;2.80;;;;;;;;;;10580224;27;20467;-90
2023/10/22 07:42:41;;;;;;;5.90;3.20;;;;;;;;;;10590097;27;20397;-89
2023/10/22 07:47:43;;;;;;;5.03;2.95;;;;;;;;;;10588780;27;20406;-88
2023/10/22 07:52:45;;;;;;;2.30;2.00;;;;;;;;;;10572594;27;20894;-88
2023/10/22 07:57:49;;;;;;;2.80;2.20;;;;;;;;;;10565153;27;20475;-87
2023/10/22 08:02:51;;;;;;;4.67;2.50;;;;;;;;;;10560769;28;20406;-87
2023/10/22 08:07:54;;;;;;;3.88;2.30;;;;;;;;;;10569941;28;20403;-86
2023/10/22 08:12:57;;;;;;;3.25;2.10;;;;;;;;;;10564969;28;20517;-87
2023/10/22 08:18:00;;;;;;;2.10;1.90;;;;;;;;;;10552663;28;20507;-86
2023/10/22 08:23:02;;;;;;;2.93;1.37;;;;;;;;;;10572416;28;20405;-87
2023/10/22 08:28:06;;;;;;;2.50;1.50;;;;;;;;;;10575685;28;20957;-86
2023/10/22 08:33:08;;;;;;;2.10;1.50;;;;;;;;;;10556849;28;20463;-87
2023/10/22 08:38:10;;;;;;;2.75;1.80;;;;;;;;;;10567897;28;20590;-87
2023/10/22 08:43:18;;;;;;;3.08;1.90;;;;;;;;;;10573250;28;20414;-89
2023/10/22 08:48:21;;;;;;;1.95;1.60;;;;;;;;;;10595780;28;20527;-89
2023/10/22 08:53:23;;;;;;;2.77;2.30;;;;;;;;;;10608794;28;20457;-89
2023/10/22 08:58:27;;;;;;;2.92;2.15;;;;;;;;;;10596866;28;20501;-90
2023/10/22 09:03:31;;;;;;;3.03;2.60;;;;;;;;;;10577472;28;20442;-83
2023/10/22 09:08:45;;;;;;;3.17;2.42;;;;;;;;;;10584553;28;21492;-88
2023/10/22 09:13:49;;;;;;;3.55;2.30;;;;;;;;;;10598033;28;20389;-90
2023/10/22 09:18:51;;;;;;;4.43;2.70;;;;;;;;;;10588701;28;20445;-89
2023/10/22 09:24:06;;;;;;;4.65;2.65;;;;;;;;;;10592938;27;20411;-89
2023/10/22 09:29:10;;;;;;;3.50;2.53;;;;;;;;;;10598990;27;20425;-88
2023/10/22 09:34:25;;;;;;;4.53;2.15;;;;;;;;;;10606784;27;20400;-88
2023/10/22 09:39:34;;;;;;;3.50;2.33;;;;;;;;;;10596942;27;20411;-90
2023/10/22 09:44:40;;;;;;;2.92;2.20;;;;;;;;;;10610713;27;20391;-90
2023/10/22 09:49:48;;;;;;;3.97;2.58;;;;;;;;;;10584499;27;20464;-90
2023/10/22 09:54:54;;;;;;;2.63;2.40;;;;;;;;;;10594812;27;20459;-89
2023/10/22 10:00:04;;;;;;;3.90;2.63;;;;;;;;;;10583832;27;20449;-89
2023/10/22 10:05:08;;;;;;;2.30;2.00;;;;;;;;;;10588423;27;20406;-90
2023/10/22 10:10:11;;;;;;;3.88;2.88;;;;;;;;;;10588384;27;20397;-82
2023/10/22 10:15:34;;;;;;;5.65;3.10;;;;;;;;;;10584885;27;20418;-90
2023/10/22 10:20:39;;;;;;;5.07;3.17;;;;;;;;;;10585791;27;20417;-89
2023/10/22 10:25:42;;;;;;;7.50;3.65;;;;;;;;;;10587219;28;20436;-89
2023/10/22 10:30:46;;;;;;;6.77;3.40;;;;;;;;;;10593871;27;20406;-87
2023/10/22 10:35:49;;;;;;;5.53;2.90;;;;;;;;;;10571631;27;20907;-86
2023/10/22 10:40:54;;;;;;;3.88;2.67;;;;;;;;;;10570561;27;20452;-88
2023/10/22 10:46:26;;;;;;;2.90;2.53;;;;;;;;;;10569711;27;20485;-88
2023/10/22 10:51:29;;;;;;;4.80;2.58;;;;;;;;;;10568379;27;20484;-87
2023/10/22 10:56:48;;;;;;;3.95;2.20;;;;;;;;;;10577183;27;20406;-88
2023/10/22 11:02:00;;;;;;;3.97;2.25;;;;;;;;;;10574284;27;20419;-88
2023/10/22 11:07:03;;;;;;;3.42;1.40;;;;;;;;;;10569278;27;20438;-88
2023/10/22 11:12:08;;;;;;;3.30;0.90;;;;;;;;;;10558105;27;20459;-87
2023/10/22 11:17:11;;;;;;;2.07;1.03;;;;;;;;;;10566605;27;20399;-88
2023/10/22 11:22:14;;;;;;;2.77;0.87;;;;;;;;;;10575606;27;20444;-89
2023/10/22 11:27:17;;;;;;;1.15;0.73;;;;;;;;;;10562208;27;20484;-88
2023/10/22 11:32:22;;;;;;;1.73;0.85;;;;;;;;;;10563839;27;20418;-87
2023/10/22 11:37:30;;;;;;;3.20;0.80;;;;;;;;;;10563274;27;20416;-89
2023/10/22 11:42:33;;;;;;;6.43;1.20;;;;;;;;;;10569929;27;20402;-88
2023/10/22 11:47:37;;;;;;;4.57;0.80;;;;;;;;;;10594987;27;20492;-89
2023/10/22 11:52:52;;;;;;;3.40;0.82;;;;;;;;;;10561220;27;20496;-88
2023/10/22 11:57:54;;;;;;;1.27;0.73;;;;;;;;;;10571469;27;20448;-90
2023/10/22 12:02:58;;;;;;;2.13;0.80;;;;;;;;;;10577906;28;20905;-87
2023/10/22 12:08:00;;;;;;;2.20;0.80;;;;;;;;;;10568727;27;20403;-88
2023/10/22 12:13:05;;;;;;;2.67;0.80;;;;;;;;;;10567773;27;20963;-85
2023/10/22 12:18:09;;;;;;;2.47;0.70;;;;;;;;;;10570491;28;20906;-86
2023/10/22 12:23:12;;;;;;;2.43;0.70;;;;;;;;;;10564906;28;20450;-86
2023/10/22 12:28:14;;;;;;;3.00;0.70;;;;;;;;;;10568301;28;20414;-88
2023/10/22 12:33:18;;;;;;;2.87;0.67;;;;;;;;;;10581489;28;20399;-87
2023/10/22 12:38:20;;;;;;;2.83;1.00;;;;;;;;;;10587244;28;20410;-88
2023/10/22 12:43:23;;;;;;;4.38;1.50;;;;;;;;;;10559789;27;20403;-89
2023/10/22 12:48:26;;;;;;;2.37;0.70;;;;;;;;;;10567128;28;20418;-87
2023/10/22 12:53:29;;;;;;;3.50;0.80;;;;;;;;;;10560205;27;20463;-88
2023/10/22 12:58:31;;;;;;;1.58;0.63;;;;;;;;;;10584525;27;20966;-88
2023/10/22 13:03:36;;;;;;;3.03;1.17;;;;;;;;;;10581284;27;20402;-88
2023/10/22 13:08:38;;;;;;;2.40;1.00;;;;;;;;;;10574893;27;20561;-88
2023/10/22 13:13:41;;;;;;;2.57;1.00;;;;;;;;;;10580226;27;20432;-89
2023/10/22 13:18:44;;;;;;;3.42;0.80;;;;;;;;;;10590251;27;20462;-89
2023/10/22 13:23:47;;;;;;;3.87;0.80;;;;;;;;;;10585422;27;20468;-88
2023/10/22 13:28:49;;;;;;;2.92;0.70;;;;;;;;;;10589621;27;20483;-87
2023/10/22 13:33:53;;;;;;;4.13;0.98;;;;;;;;;;10574057;27;20811;-89
2023/10/22 13:38:55;;;;;;;1.80;0.88;;;;;;;;;;10574439;27;20427;-88
2023/10/22 13:43:58;;;;;;;1.40;0.70;;;;;;;;;;10574735;27;20406;-89
2023/10/22 13:49:01;;;;;;;1.45;0.60;;;;;;;;;;10574362;27;20411;-87
2023/10/22 13:54:04;;;;;;;2.15;0.60;;;;;;;;;;10570001;27;20480;-88
2023/10/22 13:59:08;;;;;;;2.17;0.57;;;;;;;;;;10570519;27;20857;-89
2023/10/22 14:04:12;;;;;;;2.40;0.60;;;;;;;;;;10569187;27;20430;-89
2023/10/22 14:09:14;;;;;;;1.95;0.57;;;;;;;;;;10575726;27;20440;-89
2023/10/22 14:14:17;;;;;;;4.03;0.73;;;;;;;;;;10568364;27;20418;-88
2023/10/22 14:19:21;;;;;;;2.25;0.65;;;;;;;;;;10560794;27;20409;-89
2023/10/22 14:24:24;;;;;;;2.97;0.70;;;;;;;;;;10572335;27;20408;-89
2023/10/22 14:29:27;;;;;;;2.33;0.57;;;;;;;;;;10561383;28;20440;-88
2023/10/22 14:34:31;;;;;;;1.35;0.47;;;;;;;;;;10566491;27;20410;-88
2023/10/22 14:39:33;;;;;;;2.17;0.50;;;;;;;;;;10566454;27;20418;-88
2023/10/22 14:44:36;;;;;;;3.38;0.82;;;;;;;;;;10570042;27;20415;-88
2023/10/22 14:49:40;;;;;;;2.00;0.40;;;;;;;;;;10559112;28;20414;-88
2023/10/22 14:54:42;;;;;;;4.27;0.70;;;;;;;;;;10565063;27;20400;-88
2023/10/22 14:59:44;;;;;;;1.73;0.60;;;;;;;;;;10564820;27;20450;-89
2023/10/22 15:04:48;;;;;;;2.97;0.55;;;;;;;;;;10566056;28;20411;-88
2023/10/22 15:09:51;;;;;;;3.65;0.60;;;;;;;;;;10562721;27;20467;-88
2023/10/22 15:14:53;;;;;;;3.22;0.70;;;;;;;;;;10560562;27;20416;-89
2023/10/22 15:19:57;;;;;;;3.65;0.90;;;;;;;;;;10565951;27;20523;-86
2023/10/22 15:24:59;;;;;;;2.45;0.70;;;;;;;;;;10565168;27;20414;-88
2023/10/22 15:30:03;;;;;;;4.97;0.60;;;;;;;;;;10568076;27;20414;-89
2023/10/22 15:35:07;;;;;;;4.25;0.47;;;;;;;;;;10569170;28;20973;-89
2023/10/22 15:40:10;;;;;;;1.52;0.65;;;;;;;;;;10566852;27;20418;-88
2023/10/22 15:45:13;;;;;;;3.42;0.70;;;;;;;;;;10549313;28;20476;-88
2023/10/22 15:50:18;;;;;;;1.95;0.60;;;;;;;;;;10562279;27;20541;-88
2023/10/22 15:55:21;;;;;;;4.27;0.80;;;;;;;;;;10567122;27;20404;-87
2023/10/22 16:00:24;;;;;;;6.70;3.10;;;;;;;;;;10565916;27;20409;-88
2023/10/22 16:05:28;;;;;;;3.53;0.80;;;;;;;;;;10550042;28;20444;-88
2023/10/22 16:10:30;;;;;;;2.40;0.90;;;;;;;;;;10557709;27;20477;-88
2023/10/22 16:15:33;;;;;;;2.57;1.10;;;;;;;;;;10557163;28;20411;-88
2023/10/22 16:20:37;;;;;;;2.60;1.52;;;;;;;;;;10564775;28;20444;-88
2023/10/22 16:25:44;;;;;;;3.40;1.05;;;;;;;;;;10561308;28;20414;-86
2023/10/22 16:30:48;;;;;;;4.22;1.20;;;;;;;;;;10560963;27;20450;-86
2023/10/22 16:35:51;;;;;;;4.33;1.90;;;;;;;;;;10573267;27;20446;-86
2023/10/22 16:40:54;;;;;;;4.17;1.90;;;;;;;;;;10585981;27;20464;-86
2023/10/22 16:45:57;;;;;;;4.18;1.52;;;;;;;;;;10571687;27;20487;-85
2023/10/22 16:51:05;;;;;;;4.00;1.73;;;;;;;;;;10582078;27;20483;-89
2023/10/22 16:56:07;;;;;;;4.20;1.60;;;;;;;;;;10578019;27;20419;-87
2023/10/22 17:01:10;;;;;;;5.03;2.22;;;;;;;;;;10589937;27;20422;-88
2023/10/22 17:06:15;;;;;;;3.50;2.00;;;;;;;;;;10595386;27;20424;-90
2023/10/22 17:11:17;;;;;;;4.68;2.15;;;;;;;;;;10598825;27;20390;-90
2023/10/22 17:16:20;;;;;;;6.37;3.27;;;;;;;;;;10599624;27;20480;-90
2023/10/22 17:21:23;;;;;;;7.72;4.00;;;;;;;;;;10587088;27;20452;-88
2023/10/22 17:26:26;;;;;;;5.27;4.00;;;;;;;;;;10574251;27;20410;-88
2023/10/22 17:31:29;;;;;;;8.80;4.32;;;;;;;;;;10576190;27;20409;-88
2023/10/22 17:36:33;;;;;;;6.25;4.53;;;;;;;;;;10583024;27;20417;-88
2023/10/22 17:41:35;;;;;;;7.13;4.07;;;;;;;;;;10575684;27;20843;-86
2023/10/22 17:46:37;;;;;;;9.77;4.30;;;;;;;;;;10576250;27;20407;-86
2023/10/22 17:51:41;;;;;;;7.25;4.78;;;;;;;;;;10571583;27;20471;-87
2023/10/22 17:56:44;;;;;;;8.45;4.55;;;;;;;;;;10562727;27;20458;-86
2023/10/22 18:01:46;;;;;;;8.07;5.20;;;;;;;;;;10575553;27;20442;-87
2023/10/22 18:06:50;;;;;;;7.60;5.47;;;;;;;;;;10575271;27;20411;-86
2023/10/22 18:11:53;;;;;;;6.85;5.22;;;;;;;;;;10575412;27;20415;-86
2023/10/22 18:16:55;;;;;;;7.95;5.50;;;;;;;;;;10565600;27;20473;-85
2023/10/22 18:21:59;;;;;;;9.55;5.43;;;;;;;;;;10577997;27;20418;-86
2023/10/22 18:27:02;;;;;;;7.55;5.55;;;;;;;;;;10574192;27;20440;-86
2023/10/22 18:32:05;;;;;;;8.98;5.60;;;;;;;;;;10578926;27;20446;-85
2023/10/22 18:37:09;;;;;;;9.93;6.65;;;;;;;;;;10566707;27;20468;-79
2023/10/22 18:42:13;;;;;;;8.57;5.77;;;;;;;;;;10573267;27;20515;-86
2023/10/22 18:47:15;;;;;;;7.45;5.70;;;;;;;;;;10569524;27;20415;-86
2023/10/22 18:52:19;;;;;;;10.80;5.70;;;;;;;;;;10568182;27;20547;-85
2023/10/22 18:57:22;;;;;;;9.10;5.90;;;;;;;;;;10574485;27;21945;-86
2023/10/22 19:02:24;;;;;;;8.15;5.57;;;;;;;;;;10550779;28;20535;-85
2023/10/22 19:07:29;;;;;;;8.57;6.10;;;;;;;;;;10560172;28;20515;-85
2023/10/22 19:12:31;;;;;;;10.00;6.10;;;;;;;;;;10568511;28;20448;-87
2023/10/22 19:17:33;;;;;;;8.38;6.50;;;;;;;;;;10566255;28;20434;-86
2023/10/22 19:22:37;;;;;;;8.90;6.60;;;;;;;;;;10566876;27;20450;-86
2023/10/22 19:27:40;;;;;;;10.30;6.70;;;;;;;;;;10568938;27;20422;-84
2023/10/22 19:32:42;;;;;;;11.30;6.40;;;;;;;;;;10569872;28;20782;-86
2023/10/22 19:37:46;;;;;;;11.32;7.22;;;;;;;;;;10560697;28;20484;-85
2023/10/22 19:42:48;;;;;;;8.95;6.63;;;;;;;;;;10570413;27;20458;-86
2023/10/22 19:47:50;;;;;;;8.93;6.10;;;;;;;;;;10570622;27;20475;-86
2023/10/22 19:52:54;;;;;;;9.83;6.03;;;;;;;;;;10567658;27;20415;-85
2023/10/22 19:57:57;;;;;;;8.27;5.88;;;;;;;;;;10557420;27;20483;-85
2023/10/22 20:02:59;;;;;;;9.10;5.00;;;;;;;;;;10565667;27;20503;-85
2023/10/22 20:08:03;;;;;;;7.73;5.17;;;;;;;;;;10568461;28;20494;-86
2023/10/22 20:13:06;;;;;;;7.47;4.85;;;;;;;;;;10562926;28;20410;-85
2023/10/22 20:18:09;;;;;;;6.93;4.93;;;;;;;;;;10562578;28;20446;-86
2023/10/22 20:23:13;;;;;;;7.60;4.80;;;;;;;;;;10568180;28;20510;-85
2023/10/22 20:28:15;;;;;;;6.70;4.90;;;;;;;;;;10563662;28;20430;-86
2023/10/22 20:33:18;;;;;;;7.63;4.72;;;;;;;;;;10567417;28;20479;-85
2023/10/22 20:38:22;;;;;;;6.60;4.40;;;;;;;;;;10567722;28;20403;-86
2023/10/22 20:43:25;;;;;;;5.93;4.65;;;;;;;;;;10570847;28;20487;-85
2023/10/22 20:48:28;;;;;;;6.88;4.57;;;;;;;;;;10574086;28;20527;-86
2023/10/22 20:53:32;;;;;;;7.43;4.80;;;;;;;;;;10562598;28;20451;-85
2023/10/22 20:58:35;;;;;;;5.97;4.20;;;;;;;;;;10561279;28;20491;-87
2023/10/22 21:03:38;;;;;;;7.13;3.80;;;;;;;;;;10561462;28;20460;-87
2023/10/22 21:08:41;;;;;;;6.03;4.17;;;;;;;;;;10564695;28;20477;-87
2023/10/22 21:13:44;;;;;;;7.80;4.22;;;;;;;;;;10558566;27;20454;-85
2023/10/22 21:18:46;;;;;;;5.28;4.25;;;;;;;;;;10573220;28;20467;-87
2023/10/22 21:23:51;;;;;;;6.80;4.80;;;;;;;;;;10578044;27;20410;-85
2023/10/22 21:28:53;;;;;;;6.88;4.70;;;;;;;;;;10578350;27;21044;-88
2023/10/22 21:33:56;;;;;;;8.95;4.72;;;;;;;;;;10583643;28;20880;-92
2023/10/22 21:38:59;;;;;;;6.90;4.50;;;;;;;;;;10583860;27;20404;-85
2023/10/22 21:44:02;;;;;;;8.25;3.95;;;;;;;;;;10568202;27;20558;-85
2023/10/22 21:49:04;;;;;;;6.67;4.10;;;;;;;;;;10584453;27;20434;-85
2023/10/22 21:54:08;;;;;;;6.50;3.83;;;;;;;;;;10557044;27;20438;-85
2023/10/22 21:59:10;;;;;;;5.80;3.67;;;;;;;;;;10578851;27;20812;-85
2023/10/22 22:04:12;;;;;;;5.95;3.70;;;;;;;;;;10586306;27;20486;-85
2023/10/22 22:09:16;;;;;;;6.60;3.70;;;;;;;;;;10580404;27;20511;-85
2023/10/22 22:14:19;;;;;;;5.97;3.92;;;;;;;;;;10586986;27;20446;-85
2023/10/22 22:19:21;;;;;;;6.72;3.95;;;;;;;;;;10585899;27;20490;-85
2023/10/22 22:24:26;;;;;;;6.15;4.00;;;;;;;;;;10585986;27;20456;-85
2023/10/22 22:29:28;;;;;;;6.63;3.97;;;;;;;;;;10590172;27;20902;-85
2023/10/22 22:34:30;;;;;;;5.65;4.03;;;;;;;;;;10581886;27;20836;-85
2023/10/22 22:39:34;;;;;;;7.82;4.43;;;;;;;;;;10578723;27;20446;-85
2023/10/22 22:44:37;;;;;;;7.13;3.72;;;;;;;;;;10563960;27;20514;-83
2023/10/22 22:49:39;;;;;;;5.35;4.28;;;;;;;;;;10565489;27;20463;-85
2023/10/22 22:54:43;;;;;;;5.13;3.93;;;;;;;;;;10565287;27;20452;-84
2023/10/22 22:59:46;;;;;;;5.22;3.65;;;;;;;;;;10562293;28;20426;-84
2023/10/22 23:04:48;;;;;;;3.85;3.33;;;;;;;;;;10563939;28;20500;-84
2023/10/22 23:09:53;;;;;;;6.65;3.45;;;;;;;;;;10569521;28;20492;-84
2023/10/22 23:14:55;;;;;;;5.45;3.97;;;;;;;;;;10569990;28;20395;-84
2023/10/22 23:19:58;;;;;;;7.53;3.88;;;;;;;;;;10569593;28;20406;-84
2023/10/22 23:25:01;;;;;;;5.97;3.60;;;;;;;;;;10567205;28;20551;-84
2023/10/22 23:30:04;;;;;;;8.30;3.87;;;;;;;;;;10569058;27;20456;-84
2023/10/22 23:35:07;;;;;;;4.97;3.30;;;;;;;;;;10565669;28;20412;-83
2023/10/22 23:40:12;;;;;;;4.63;3.42;;;;;;;;;;10572273;28;20411;-83
2023/10/22 23:45:14;;;;;;;5.50;3.25;;;;;;;;;;10569730;28;20486;-84
2023/10/22 23:50:16;;;;;;;4.63;3.10;;;;;;;;;;10573635;28;20398;-84
2023/10/22 23:55:21;;;;;;;4.25;2.78;;;;;;;;;;10572138;28;20467;-84
